メインページ
METAR-TAF:

METAR-TAF

空港 :

札幌, 日本

札幌飛行場

緯度: 43-07N, 経度: 141-23E, 海抜: 8m

現時点の気象観測

当レポートは2時間2分前の21:45(UTC)に作成
南/南東の風 2kt
気温 -16°C
湿度 84%
気圧 1017 hPa
視程: 8000m
高度100ftの雲はほとんどない
高度20000ftの千切れ雲あり

METAR: RJCO 182145Z 16002KT 8000 FEW001 BKN200 M16/M18 Q1017 RMK 1ST001 6CI200 A3005

時間: 08:47 (23:47 UTC)


TAF: 見つかりません

4,000以上の空港の気象観測と天気予報(METAR報とTAF報)

利用可能な観測所は地図上に黄色い丸と赤い丸で示す。

丸の上にカーソルを重ねると観測所名を参照できる。

次にクリックすると気象観測と天気予報を参照できる。

マップの切り替え:黒色「×」印の緑ボタンをクリックして拡大、「-」印の緑ボタンをクリックして縮小、緑色の三角印をクリックして隣りの地図に切り替え


METAR-TAF: